createdAt,value
2022-09-15T00:01:08.126Z,34.42
2022-09-15T00:03:34.767Z,41.42
2022-09-15T00:06:01.353Z,37.45
2022-09-15T00:08:27.934Z,40.70
2022-09-15T00:10:58.418Z,41.05
2022-09-15T00:13:25.737Z,36.65
2022-09-15T00:15:52.711Z,35.03
2022-09-15T00:18:19.285Z,44.08
2022-09-15T00:20:46.359Z,40.47
2022-09-15T00:23:16.548Z,38.03
2022-09-15T00:25:45.765Z,40.65
2022-09-15T00:28:13.558Z,34.38
2022-09-15T00:30:42.107Z,36.47
2022-09-15T00:33:08.935Z,39.70
2022-09-15T00:35:44.340Z,34.78
2022-09-15T00:38:12.259Z,33.35
2022-09-15T00:40:56.370Z,39.92
2022-09-15T00:43:45.035Z,32.05
2022-09-15T00:46:12.144Z,37.30
2022-09-15T00:48:42.531Z,41.05
2022-09-15T00:51:10.757Z,33.28
2022-09-15T00:53:37.777Z,35.60
2022-09-15T00:56:05.138Z,39.30
2022-09-15T00:58:41.069Z,35.67
2022-09-15T01:01:08.495Z,39.50
2022-09-15T01:03:35.797Z,31.73
2022-09-15T01:06:08.228Z,34.38
2022-09-15T01:08:39.727Z,38.47
2022-09-15T01:11:06.926Z,39.65
2022-09-15T01:13:35.536Z,40.38
2022-09-15T01:16:29.276Z,36.30
2022-09-15T01:19:33.613Z,35.40
2022-09-15T01:22:13.798Z,31.35
2022-09-15T01:24:52.633Z,35.88
2022-09-15T01:27:42.967Z,38.70
2022-09-15T01:30:14.676Z,43.90
2022-09-15T01:33:05.249Z,48.47
2022-09-15T01:35:43.897Z,38.50
2022-09-15T01:38:22.570Z,41.83
2022-09-15T01:40:55.816Z,41.95
2022-09-15T01:43:24.119Z,42.55
2022-09-15T01:45:51.698Z,47.63
2022-09-15T01:48:20.303Z,43.58
2022-09-15T01:50:50.369Z,42.05
2022-09-15T01:53:19.533Z,42.03
2022-09-15T01:56:00.212Z,39.05
2022-09-15T01:58:26.822Z,42.47
2022-09-15T02:01:12.422Z,48.60
2022-09-15T02:03:46.238Z,37.42
2022-09-15T02:06:36.668Z,33.10
2022-09-15T02:09:12.681Z,38.85
2022-09-15T02:11:49.049Z,45.70
2022-09-15T02:14:26.113Z,40.22
2022-09-15T02:16:54.013Z,27.27
2022-09-15T02:19:34.261Z,44.20
2022-09-15T02:22:14.499Z,35.20
2022-09-15T02:24:45.977Z,36.03
2022-09-15T02:27:16.785Z,40.88
2022-09-15T02:29:45.389Z,41.22
2022-09-15T02:32:13.858Z,45.55
2022-09-15T02:34:45.430Z,46.22
2022-09-15T02:37:13.161Z,38.17
2022-09-15T02:39:44.037Z,41.17
2022-09-15T02:42:10.801Z,41.28
2022-09-15T02:44:37.680Z,40.90
2022-09-15T02:47:04.457Z,35.70
2022-09-15T02:49:31.096Z,38.88
2022-09-15T02:51:57.693Z,44.28
2022-09-15T02:54:24.301Z,41.40
2022-09-15T02:56:50.894Z,40.15
2022-09-15T02:59:17.466Z,41.55
2022-09-15T03:01:44.988Z,55.65
2022-09-15T03:04:11.624Z,43.45
2022-09-15T03:06:38.291Z,36.78
2022-09-15T03:09:08.110Z,47.00
2022-09-15T03:11:35.122Z,37.78
2022-09-15T03:14:04.138Z,38.95
2022-09-15T03:16:32.293Z,41.08
2022-09-15T03:18:59.509Z,38.65
2022-09-15T03:21:27.617Z,46.05
2022-09-15T03:23:54.211Z,48.75
2022-09-15T03:26:20.854Z,48.33
2022-09-15T03:28:47.445Z,41.42
2022-09-15T03:31:14.088Z,39.85
2022-09-15T03:33:41.165Z,43.15
2022-09-15T03:36:08.130Z,43.22
2022-09-15T03:38:34.764Z,52.10
2022-09-15T03:41:07.722Z,44.60
2022-09-15T03:43:35.433Z,43.65
2022-09-15T03:46:02.888Z,51.28
2022-09-15T03:48:31.219Z,45.50
2022-09-15T03:50:57.966Z,43.45
2022-09-15T03:53:24.825Z,39.00
2022-09-15T03:55:51.651Z,44.13
2022-09-15T03:58:19.194Z,42.67
2022-09-15T04:00:46.799Z,42.83
2022-09-15T04:03:14.062Z,36.83
2022-09-15T04:05:42.289Z,46.95
2022-09-15T04:08:12.711Z,37.30
2022-09-15T04:10:40.904Z,40.83
2022-09-15T04:13:07.925Z,39.10
2022-09-15T04:15:35.923Z,40.20
2022-09-15T04:18:04.866Z,42.92
2022-09-15T04:20:31.928Z,42.88
2022-09-15T04:22:58.671Z,42.90
2022-09-15T04:25:27.798Z,45.72
2022-09-15T04:27:54.448Z,46.00
2022-09-15T04:30:21.039Z,40.72
2022-09-15T04:32:48.846Z,45.88
2022-09-15T04:35:16.209Z,45.63
2022-09-15T04:37:42.815Z,45.40
2022-09-15T04:40:11.537Z,51.70
2022-09-15T04:42:38.356Z,44.83
2022-09-15T04:45:07.072Z,42.78
2022-09-15T04:47:33.705Z,46.45
2022-09-15T04:50:00.470Z,47.05
2022-09-15T04:52:27.463Z,53.58
2022-09-15T04:54:54.662Z,48.17
2022-09-15T04:57:21.425Z,42.92
2022-09-15T04:59:48.045Z,48.05
2022-09-15T05:02:14.819Z,51.78
2022-09-15T05:04:41.587Z,44.58
2022-09-15T05:07:08.268Z,39.75
2022-09-15T05:09:34.920Z,55.95
2022-09-15T05:12:01.920Z,37.65
2022-09-15T05:14:28.643Z,36.70
2022-09-15T05:16:55.321Z,40.85
2022-09-15T05:19:22.111Z,41.42
2022-09-15T05:21:48.833Z,40.20
2022-09-15T05:24:15.502Z,44.65
2022-09-15T05:26:42.093Z,40.00
2022-09-15T05:29:08.853Z,43.92
2022-09-15T05:31:35.618Z,40.28
2022-09-15T05:34:06.899Z,35.88
2022-09-15T05:36:33.779Z,35.03
2022-09-15T05:39:01.778Z,43.33
2022-09-15T05:41:29.034Z,41.42
2022-09-15T05:43:59.649Z,41.10
2022-09-15T05:46:27.041Z,38.78
2022-09-15T05:48:58.621Z,37.88
2022-09-15T05:51:25.554Z,44.83
2022-09-15T05:53:52.430Z,38.78
2022-09-15T05:56:20.069Z,38.95
2022-09-15T05:58:53.275Z,36.28
2022-09-15T06:01:25.212Z,33.05
2022-09-15T06:03:52.642Z,37.95
2022-09-15T06:06:19.806Z,35.72
2022-09-15T06:08:51.843Z,36.60
2022-09-15T06:11:22.241Z,43.30
2022-09-15T06:13:49.936Z,31.70
2022-09-15T06:16:19.376Z,39.88
2022-09-15T06:18:47.354Z,33.42
2022-09-15T06:21:16.453Z,35.80
2022-09-15T06:23:47.172Z,33.70
2022-09-15T06:26:18.901Z,35.08
2022-09-15T06:28:50.841Z,33.92
2022-09-15T06:31:18.391Z,33.45
2022-09-15T06:33:47.114Z,35.15
2022-09-15T06:36:15.497Z,41.40
2022-09-15T06:38:42.505Z,31.23
2022-09-15T06:41:09.468Z,37.45
2022-09-15T06:52:42.753Z,28.48
2022-09-15T07:13:32.133Z,25.30
2022-09-15T07:19:00.109Z,28.55
2022-09-15T07:21:30.259Z,22.73
2022-09-15T07:46:03.403Z,16.15
2022-09-15T07:48:30.780Z,16.55
2022-09-15T07:50:59.990Z,17.05
2022-09-15T07:56:18.633Z,17.83
2022-09-15T07:58:46.423Z,20.73
2022-09-15T08:01:33.459Z,22.95
2022-09-15T08:04:00.501Z,15.48
2022-09-15T08:06:27.470Z,17.70
2022-09-15T08:09:00.151Z,15.25
2022-09-15T08:11:35.465Z,20.45
2022-09-15T08:14:04.210Z,17.40
2022-09-15T08:16:30.979Z,17.77
2022-09-15T08:19:00.077Z,17.27
2022-09-15T08:21:27.819Z,17.65
2022-09-15T08:23:56.539Z,24.65
2022-09-15T08:29:09.955Z,15.02
2022-09-15T08:31:36.693Z,16.50
2022-09-15T08:34:06.531Z,18.15
2022-09-15T08:36:34.867Z,18.48
2022-09-15T08:39:01.523Z,14.57
2022-09-15T08:41:36.485Z,14.38
2022-09-15T08:44:25.220Z,17.27
2022-09-15T08:47:12.524Z,14.45
2022-09-15T08:50:04.179Z,12.38
2022-09-15T08:52:39.235Z,15.93
2022-09-15T08:55:17.972Z,14.00
2022-09-15T08:57:45.178Z,13.30
2022-09-15T09:00:16.838Z,16.10
2022-09-15T09:03:08.437Z,12.15
2022-09-15T09:06:02.771Z,12.57
2022-09-15T09:08:48.276Z,14.63
2022-09-15T09:11:30.767Z,17.10
2022-09-15T09:14:24.570Z,8.80
2022-09-15T09:17:04.711Z,8.85
2022-09-15T09:19:40.398Z,15.27
2022-09-15T09:22:10.877Z,5.13
2022-09-15T09:24:43.202Z,5.50
2022-09-15T09:27:14.240Z,7.97
2022-09-15T09:29:49.530Z,7.72
2022-09-15T09:32:28.540Z,9.00
2022-09-15T09:35:02.074Z,5.70
2022-09-15T09:37:29.187Z,18.10
2022-09-15T09:39:55.907Z,3.63
2022-09-15T09:42:28.211Z,6.45
2022-09-15T09:44:55.508Z,4.03
2022-09-15T09:47:27.796Z,7.65
2022-09-15T09:49:54.485Z,5.90
2022-09-15T09:52:39.547Z,4.93
2022-09-15T09:55:18.587Z,8.68
2022-09-15T09:57:47.561Z,10.30
2022-09-15T10:00:35.458Z,5.43
2022-09-15T10:03:33.044Z,7.28
2022-09-15T10:06:11.791Z,3.03
2022-09-15T10:08:53.338Z,7.75
2022-09-15T10:11:22.688Z,3.05
2022-09-15T10:13:52.692Z,4.45
2022-09-15T10:16:19.800Z,11.93
2022-09-15T10:18:53.585Z,4.07
2022-09-15T10:21:24.055Z,3.95
2022-09-15T10:23:51.237Z,6.25
2022-09-15T10:26:23.771Z,4.18
2022-09-15T10:29:14.879Z,5.22
2022-09-15T10:31:42.079Z,7.68
2022-09-15T10:34:30.527Z,4.60
2022-09-15T10:37:08.838Z,7.35
2022-09-15T10:40:08.030Z,6.30
2022-09-15T10:42:49.277Z,5.28
2022-09-15T10:45:18.896Z,4.35
2022-09-15T10:48:12.352Z,4.15
2022-09-15T10:50:57.868Z,3.75
2022-09-15T10:53:44.182Z,7.43
2022-09-15T10:56:26.549Z,6.38
2022-09-15T10:59:17.882Z,4.10
2022-09-15T11:02:14.380Z,2.55
2022-09-15T11:05:13.961Z,3.13
2022-09-15T11:08:08.727Z,8.43
2022-09-15T11:10:54.299Z,5.72
2022-09-15T11:13:51.324Z,6.03
2022-09-15T11:16:39.077Z,3.95
2022-09-15T11:19:41.942Z,8.88
2022-09-15T11:22:21.862Z,7.32
2022-09-15T11:24:57.694Z,4.45
2022-09-15T11:27:34.594Z,7.65
2022-09-15T11:30:13.405Z,5.10
2022-09-15T11:33:04.799Z,4.65
2022-09-15T11:35:55.361Z,6.13
2022-09-15T11:38:43.059Z,2.17
2022-09-15T11:41:35.307Z,12.30
2022-09-15T11:44:06.375Z,5.43
2022-09-15T11:47:04.927Z,2.63
2022-09-15T11:49:37.401Z,2.20
2022-09-15T11:52:19.243Z,1.27
2022-09-15T11:55:01.768Z,3.45
2022-09-15T11:57:36.922Z,2.00
2022-09-15T12:00:12.743Z,3.80
2022-09-15T12:02:58.257Z,4.43
2022-09-15T12:05:32.035Z,3.55
2022-09-15T12:08:04.548Z,7.28
2022-09-15T12:10:38.474Z,1.20
2022-09-15T12:13:05.817Z,6.22
2022-09-15T12:15:32.705Z,3.47
2022-09-15T12:18:06.614Z,5.20
2022-09-15T12:20:52.732Z,5.68
2022-09-15T12:23:29.399Z,8.43
2022-09-15T12:26:18.530Z,4.30
2022-09-15T12:29:02.447Z,3.63
2022-09-15T12:31:37.053Z,4.85
2022-09-15T12:34:23.184Z,4.82
2022-09-15T12:36:53.504Z,5.40
2022-09-15T12:39:38.722Z,2.47
2022-09-15T12:42:24.873Z,3.33
2022-09-15T12:44:56.327Z,3.10
2022-09-15T12:47:38.738Z,7.95
2022-09-15T12:50:16.324Z,3.30
2022-09-15T12:52:58.653Z,2.00
2022-09-15T12:55:28.544Z,2.17
2022-09-15T12:58:09.880Z,4.63
2022-09-15T13:01:00.599Z,5.20
2022-09-15T13:03:37.606Z,1.80
2022-09-15T13:06:13.521Z,3.65
2022-09-15T13:08:52.426Z,2.05
2022-09-15T13:11:27.252Z,3.10
2022-09-15T13:14:06.974Z,2.85
2022-09-15T13:16:54.531Z,10.68
2022-09-15T13:19:37.479Z,3.88
2022-09-15T13:22:32.644Z,6.53
2022-09-15T13:25:13.767Z,2.35
2022-09-15T13:27:53.268Z,5.78
2022-09-15T13:30:53.916Z,7.22
2022-09-15T13:33:21.458Z,2.80
2022-09-15T13:36:13.560Z,2.80
2022-09-15T13:39:14.222Z,3.75
2022-09-15T13:41:59.916Z,4.78
2022-09-15T13:44:42.304Z,8.80
2022-09-15T13:47:46.842Z,4.20
2022-09-15T13:50:33.495Z,5.55
2022-09-15T13:56:41.774Z,7.18
2022-09-15T13:59:42.441Z,5.72
2022-09-15T14:02:09.322Z,6.95
2022-09-15T14:04:36.115Z,4.97
2022-09-15T14:07:04.992Z,10.13
2022-09-15T14:09:44.882Z,8.10
2022-09-15T14:12:12.605Z,4.45
2022-09-15T14:14:58.161Z,4.70
2022-09-15T14:17:40.691Z,2.28
2022-09-15T14:20:27.004Z,10.00
2022-09-15T14:25:55.004Z,3.35
2022-09-15T14:28:31.502Z,6.22
2022-09-15T14:31:00.097Z,4.25
2022-09-15T14:33:47.629Z,5.78
2022-09-15T14:36:22.921Z,5.32
2022-09-15T14:39:21.903Z,4.18
2022-09-15T14:41:50.430Z,5.43
2022-09-15T14:47:28.636Z,2.67
2022-09-15T14:50:31.739Z,1.35
2022-09-15T14:53:07.823Z,5.63
2022-09-15T14:55:53.594Z,2.45
2022-09-15T14:58:52.102Z,5.70
2022-09-15T15:01:43.600Z,4.05
2022-09-15T15:04:24.468Z,3.42
2022-09-15T15:06:57.409Z,3.15
2022-09-15T15:09:35.026Z,1.15
2022-09-15T15:12:05.347Z,2.33
2022-09-15T15:14:46.077Z,6.43
2022-09-15T15:17:44.111Z,3.05
2022-09-15T15:20:11.022Z,1.95
2022-09-15T15:22:38.881Z,2.05
2022-09-15T15:25:24.630Z,7.88
2022-09-15T15:27:54.132Z,3.15
2022-09-15T15:30:30.612Z,1.50
2022-09-15T15:33:04.979Z,2.30
2022-09-15T15:35:33.009Z,1.70
2022-09-15T15:40:48.666Z,7.55
2022-09-15T15:43:24.839Z,4.70
2022-09-15T15:46:03.781Z,4.47
2022-09-15T15:48:37.919Z,4.95
2022-09-15T15:51:09.696Z,5.30
2022-09-15T15:53:37.184Z,8.13
2022-09-15T15:56:04.486Z,6.93
2022-09-15T15:58:31.447Z,2.80
2022-09-15T16:00:58.109Z,4.30
2022-09-15T16:03:25.700Z,8.20
2022-09-15T16:05:54.443Z,6.28
2022-09-15T16:08:34.380Z,4.75
2022-09-15T16:11:02.180Z,1.98
2022-09-15T16:13:28.918Z,2.35
2022-09-15T16:15:57.838Z,5.28
2022-09-15T16:18:24.853Z,2.50
2022-09-15T16:20:52.078Z,6.60
2022-09-15T16:23:21.049Z,3.05
2022-09-15T16:25:58.181Z,3.05
2022-09-15T16:28:25.144Z,5.07
2022-09-15T16:30:51.882Z,2.35
2022-09-15T16:33:19.237Z,4.70
2022-09-15T16:35:51.156Z,5.90
2022-09-15T16:38:20.192Z,6.40
2022-09-15T16:40:48.047Z,7.18
2022-09-15T16:43:17.558Z,8.63
2022-09-15T16:45:44.425Z,6.25
2022-09-15T16:48:13.420Z,3.47
2022-09-15T16:50:50.094Z,3.17
2022-09-15T16:53:23.001Z,6.93
2022-09-15T16:55:51.702Z,4.97
2022-09-15T16:58:20.233Z,10.13
2022-09-15T17:00:56.485Z,5.22
2022-09-15T17:03:36.488Z,8.85
2022-09-15T17:06:03.394Z,6.85
2022-09-15T17:08:32.562Z,6.43
2022-09-15T17:11:04.560Z,6.80
2022-09-15T17:13:34.628Z,6.07
2022-09-15T17:16:01.912Z,6.78
2022-09-15T17:18:28.801Z,6.20
2022-09-15T17:20:55.791Z,7.85
2022-09-15T17:23:32.507Z,8.82
2022-09-15T17:26:04.415Z,8.32
2022-09-15T17:28:38.441Z,5.32
2022-09-15T17:31:22.346Z,5.05
2022-09-15T17:33:49.973Z,6.88
2022-09-15T17:36:17.407Z,6.00
2022-09-15T17:38:50.410Z,4.45
2022-09-15T17:41:19.625Z,9.40
2022-09-15T17:43:48.021Z,6.55
2022-09-15T17:46:14.811Z,4.32
2022-09-15T17:48:41.925Z,7.32
2022-09-15T17:51:14.563Z,6.43
2022-09-15T17:53:42.379Z,2.65
2022-09-15T17:56:13.110Z,7.60
2022-09-15T17:58:40.121Z,7.60
2022-09-15T18:01:08.824Z,7.40
2022-09-15T18:03:37.512Z,4.95
2022-09-15T18:06:07.452Z,3.40
2022-09-15T18:08:38.234Z,6.28
2022-09-15T18:11:06.737Z,4.75
2022-09-15T18:16:14.918Z,8.52
2022-09-15T18:18:44.392Z,11.80
2022-09-15T18:21:24.567Z,5.72
2022-09-15T18:23:51.339Z,8.63
2022-09-15T18:26:21.444Z,9.32
2022-09-15T18:28:56.491Z,3.45
2022-09-15T18:31:23.347Z,1.77
2022-09-15T18:33:50.695Z,4.60
2022-09-15T18:36:17.700Z,6.78
2022-09-15T18:38:59.046Z,5.20
2022-09-15T18:44:47.253Z,3.90
2022-09-15T18:47:16.861Z,1.95
2022-09-15T18:49:49.031Z,11.18
2022-09-15T18:52:20.141Z,7.05
2022-09-15T18:57:27.510Z,4.57
2022-09-15T19:00:03.258Z,3.22
2022-09-15T19:02:30.126Z,6.15
2022-09-15T19:04:57.357Z,7.30
2022-09-15T19:07:28.199Z,5.93
2022-09-15T19:09:59.001Z,3.70
2022-09-15T19:12:28.521Z,5.20
2022-09-15T19:14:56.092Z,4.55
2022-09-15T19:17:27.023Z,9.80
2022-09-15T19:19:55.295Z,4.18
2022-09-15T19:22:24.224Z,5.22
2022-09-15T19:24:51.328Z,3.65
2022-09-15T19:27:35.131Z,5.85
2022-09-15T19:30:01.903Z,6.30
2022-09-15T19:32:29.327Z,5.57
2022-09-15T19:35:06.662Z,3.95
2022-09-15T19:40:20.699Z,6.40
2022-09-15T19:42:53.529Z,6.95
2022-09-15T19:48:00.916Z,6.65
2022-09-15T19:50:30.259Z,6.35
2022-09-15T19:52:59.729Z,3.63
2022-09-15T19:55:32.862Z,7.10
2022-09-15T19:57:59.616Z,7.85
2022-09-15T20:00:26.620Z,5.00
2022-09-15T20:02:55.476Z,4.97
2022-09-15T20:05:22.160Z,5.57
2022-09-15T20:07:48.906Z,5.25
2022-09-15T20:10:17.069Z,5.80
2022-09-15T20:12:44.141Z,4.35
2022-09-15T20:15:11.067Z,1.77
2022-09-15T20:17:41.781Z,3.25
2022-09-15T20:20:10.794Z,1.55
2022-09-15T20:22:49.242Z,7.75
2022-09-15T20:25:16.095Z,4.35
2022-09-15T20:27:44.243Z,3.88
2022-09-15T20:30:11.215Z,1.85
2022-09-15T20:32:37.863Z,2.92
2022-09-15T20:35:08.482Z,6.45
2022-09-15T20:37:37.675Z,3.20
2022-09-15T20:40:08.783Z,2.13
2022-09-15T20:42:36.776Z,1.15
2022-09-15T20:45:04.979Z,5.60
2022-09-15T20:47:31.712Z,3.35
2022-09-15T20:49:59.430Z,2.97
2022-09-15T20:52:38.225Z,2.83
2022-09-15T20:55:05.689Z,1.95
2022-09-15T20:57:32.321Z,1.70
2022-09-15T20:59:59.593Z,2.60
2022-09-15T21:02:26.564Z,0.95
2022-09-15T21:04:53.276Z,3.25
2022-09-15T21:07:24.908Z,4.30
2022-09-15T21:09:51.498Z,1.35
2022-09-15T21:12:20.318Z,5.28
2022-09-15T21:14:47.046Z,2.60
2022-09-15T21:17:14.120Z,1.25
2022-09-15T21:19:40.868Z,2.28
2022-09-15T21:22:07.569Z,1.35
2022-09-15T21:24:34.500Z,3.10
2022-09-15T21:27:30.640Z,2.20
2022-09-15T21:29:58.527Z,4.55
2022-09-15T21:32:26.190Z,1.85
2022-09-15T21:34:56.179Z,2.35
2022-09-15T21:37:22.914Z,1.85
2022-09-15T21:39:50.255Z,3.83
2022-09-15T21:42:17.507Z,2.75
2022-09-15T21:44:46.891Z,3.47
2022-09-15T21:47:16.406Z,10.38
2022-09-15T21:49:43.086Z,3.45
2022-09-15T21:52:12.059Z,5.97
2022-09-15T21:54:39.312Z,6.25
2022-09-15T21:57:06.050Z,17.23
2022-09-15T21:59:32.724Z,7.47
2022-09-15T22:01:59.491Z,4.53
2022-09-15T22:04:26.208Z,7.05
2022-09-15T22:06:53.030Z,5.10
2022-09-15T22:09:22.734Z,6.85
2022-09-15T22:11:49.445Z,6.03
2022-09-15T22:14:18.270Z,3.28
2022-09-15T22:16:45.110Z,7.30
2022-09-15T22:19:12.209Z,7.38
2022-09-15T22:21:41.668Z,5.05
2022-09-15T22:24:22.787Z,5.90
2022-09-15T22:26:49.498Z,6.55
2022-09-15T22:29:16.127Z,5.40
2022-09-15T22:31:42.845Z,4.03
2022-09-15T22:34:09.795Z,3.90
2022-09-15T22:36:37.936Z,6.50
2022-09-15T22:39:06.313Z,5.85
2022-09-15T22:41:37.885Z,7.40
2022-09-15T22:44:05.895Z,7.70
2022-09-15T22:46:32.975Z,4.80
2022-09-15T22:48:59.984Z,4.35
2022-09-15T22:51:26.664Z,4.10
2022-09-15T22:53:54.823Z,6.82
2022-09-15T22:56:21.723Z,5.88
2022-09-15T22:58:49.498Z,7.32
2022-09-15T23:01:21.580Z,7.05
2022-09-15T23:03:56.147Z,3.25
2022-09-15T23:06:23.234Z,5.93
2022-09-15T23:08:58.021Z,9.77
2022-09-15T23:11:25.934Z,9.63
2022-09-15T23:13:53.481Z,4.97
2022-09-15T23:16:21.641Z,4.75
2022-09-15T23:18:49.206Z,3.40
2022-09-15T23:21:16.108Z,4.68
2022-09-15T23:23:44.368Z,4.00
2022-09-15T23:26:12.425Z,4.25
2022-09-15T23:28:39.801Z,11.63
2022-09-15T23:31:07.172Z,5.47
2022-09-15T23:33:34.321Z,3.65
2022-09-15T23:36:02.566Z,2.38
2022-09-15T23:38:29.911Z,2.20
2022-09-15T23:40:56.906Z,4.03
2022-09-15T23:43:23.575Z,3.15
2022-09-15T23:45:51.300Z,2.83
2022-09-15T23:48:18.044Z,1.85
2022-09-15T23:50:44.769Z,4.82
2022-09-15T23:53:11.921Z,2.03
2022-09-15T23:55:38.593Z,9.25
2022-09-15T23:58:05.538Z,5.90
